createdAt,value
2022-08-01T00:00:04.556Z,20.53
2022-08-01T00:02:31.994Z,20.48
2022-08-01T00:04:58.962Z,20.48
2022-08-01T00:07:25.333Z,20.52
2022-08-01T00:09:51.715Z,20.54
2022-08-01T00:12:18.114Z,20.50
2022-08-01T00:14:44.707Z,20.49
2022-08-01T00:17:11.122Z,20.48
2022-08-01T00:19:37.707Z,20.42
2022-08-01T00:22:04.663Z,20.41
2022-08-01T00:24:31.223Z,20.32
2022-08-01T00:26:57.704Z,20.38
2022-08-01T00:30:04.736Z,20.39
2022-08-01T00:32:10.524Z,20.35
2022-08-01T00:34:36.926Z,20.31
2022-08-01T00:37:03.444Z,20.29
2022-08-01T00:39:29.850Z,20.31
2022-08-01T00:41:59.669Z,20.34
2022-08-01T00:44:28.195Z,20.30
2022-08-01T00:46:54.611Z,20.31
2022-08-01T00:49:21.137Z,20.29
2022-08-01T00:51:47.735Z,20.33
2022-08-01T00:54:16.615Z,20.32
2022-08-01T00:56:44.456Z,20.25
2022-08-01T00:59:12.643Z,20.27
2022-08-01T01:01:40.671Z,20.25
2022-08-01T01:04:13.118Z,20.25
2022-08-01T01:06:49.617Z,20.26
2022-08-01T01:09:35.927Z,20.24
2022-08-01T01:12:18.799Z,20.23
2022-08-01T01:15:11.497Z,20.22
2022-08-01T01:17:50.871Z,20.19
2022-08-01T01:20:19.237Z,20.15
2022-08-01T01:22:54.523Z,20.13
2022-08-01T01:25:37.978Z,20.16
2022-08-01T01:28:30.677Z,20.13
2022-08-01T01:30:59.164Z,20.13
2022-08-01T01:33:29.398Z,20.18
2022-08-01T01:36:02.530Z,20.09
2022-08-01T01:38:33.055Z,20.06
2022-08-01T01:41:00.943Z,20.07
2022-08-01T01:43:33.644Z,20.06
2022-08-01T01:46:01.510Z,20.01
2022-08-01T01:48:29.570Z,20.03
2022-08-01T01:50:57.652Z,20.01
2022-08-01T01:53:24.813Z,20.04
2022-08-01T01:55:56.655Z,20.07
2022-08-01T01:58:24.262Z,20.01
2022-08-01T02:00:52.700Z,20.04
2022-08-01T02:03:20.675Z,20.05
2022-08-01T02:05:47.634Z,20.04
2022-08-01T02:08:17.301Z,20.00
2022-08-01T02:11:06.192Z,20.01
2022-08-01T02:13:37.947Z,19.93
2022-08-01T02:16:06.080Z,19.91
2022-08-01T02:18:33.102Z,19.90
2022-08-01T02:21:02.018Z,19.89
2022-08-01T02:23:33.664Z,19.84
2022-08-01T02:26:10.310Z,19.85
2022-08-01T02:28:47.652Z,19.86
2022-08-01T02:31:17.957Z,19.87
2022-08-01T02:33:47.057Z,19.93
2022-08-01T02:36:29.681Z,19.87
2022-08-01T02:39:07.270Z,19.83
2022-08-01T02:41:36.959Z,19.86
2022-08-01T02:44:07.740Z,19.83
2022-08-01T02:46:44.269Z,19.85
2022-08-01T02:49:12.802Z,19.78
2022-08-01T02:51:41.635Z,19.78
2022-08-01T02:54:10.816Z,19.76
2022-08-01T02:56:38.851Z,19.78
2022-08-01T02:59:10.381Z,19.86
2022-08-01T03:01:42.196Z,19.86
2022-08-01T03:04:11.317Z,19.86
2022-08-01T03:06:39.086Z,19.86
2022-08-01T03:09:07.826Z,19.88
2022-08-01T03:11:38.827Z,19.86
2022-08-01T03:14:08.786Z,19.86
2022-08-01T03:16:38.842Z,19.88
2022-08-01T03:19:07.989Z,19.84
2022-08-01T03:21:35.448Z,19.83
2022-08-01T03:24:04.020Z,19.84
2022-08-01T03:26:33.818Z,19.84
2022-08-01T03:29:13.473Z,19.83
2022-08-01T03:31:43.729Z,19.84
2022-08-01T03:34:10.226Z,19.89
2022-08-01T03:36:52.292Z,19.90
2022-08-01T03:39:22.502Z,19.88
2022-08-01T03:41:56.906Z,19.92
2022-08-01T03:44:27.092Z,19.89
2022-08-01T03:47:00.543Z,19.91
2022-08-01T03:49:55.803Z,19.91
2022-08-01T03:52:23.759Z,19.86
2022-08-01T03:54:55.743Z,19.87
2022-08-01T03:57:36.511Z,19.72
2022-08-01T04:00:09.911Z,19.72
2022-08-01T04:02:37.791Z,19.68
2022-08-01T04:05:05.376Z,19.67
2022-08-01T04:07:36.586Z,19.66
2022-08-01T04:10:03.446Z,19.61
2022-08-01T04:12:29.842Z,19.59
2022-08-01T04:14:56.214Z,19.54
2022-08-01T04:17:22.600Z,19.47
2022-08-01T04:19:48.998Z,19.42
2022-08-01T04:22:16.658Z,19.45
2022-08-01T04:24:54.537Z,19.51
2022-08-01T04:27:50.977Z,19.56
2022-08-01T04:30:26.760Z,19.55
2022-08-01T04:32:56.245Z,19.55
2022-08-01T04:36:01.449Z,19.49
2022-08-01T04:38:18.050Z,19.43
2022-08-01T04:40:49.126Z,19.51
2022-08-01T04:43:15.799Z,19.48
2022-08-01T04:45:44.689Z,19.54
2022-08-01T04:48:12.129Z,19.56
2022-08-01T04:50:38.636Z,19.57
2022-08-01T04:53:05.074Z,19.55
2022-08-01T04:55:32.287Z,19.60
2022-08-01T04:57:58.701Z,19.63
2022-08-01T05:00:26.152Z,19.65
2022-08-01T05:02:52.537Z,19.67
2022-08-01T05:05:18.884Z,19.70
2022-08-01T05:07:45.806Z,19.69
2022-08-01T05:10:12.331Z,19.72
2022-08-01T05:12:38.747Z,19.77
2022-08-01T05:15:05.943Z,19.82
2022-08-01T05:17:32.787Z,19.82
2022-08-01T05:19:59.128Z,19.86
2022-08-01T05:22:26.501Z,19.88
2022-08-01T05:24:53.637Z,19.92
2022-08-01T05:27:20.467Z,19.84
2022-08-01T05:29:48.044Z,19.80
2022-08-01T05:32:14.578Z,19.83
2022-08-01T05:34:40.997Z,19.86
2022-08-01T05:37:08.378Z,19.90
2022-08-01T05:39:34.735Z,19.91
2022-08-01T05:42:01.291Z,19.90
2022-08-01T05:44:27.768Z,19.95
2022-08-01T05:46:54.314Z,20.03
2022-08-01T05:49:20.853Z,20.06
2022-08-01T05:51:47.406Z,20.06
2022-08-01T05:54:13.783Z,20.07
2022-08-01T05:56:40.285Z,20.12
2022-08-01T05:59:06.994Z,20.15
2022-08-01T06:01:33.665Z,20.09
2022-08-01T06:04:00.102Z,20.14
2022-08-01T06:06:26.860Z,20.13
2022-08-01T06:08:53.282Z,20.19
2022-08-01T06:11:19.749Z,20.22
2022-08-01T06:13:48.548Z,20.18
2022-08-01T06:16:15.589Z,20.17
2022-08-01T06:18:41.948Z,20.23
2022-08-01T06:21:08.392Z,20.27
2022-08-01T06:23:34.812Z,20.35
2022-08-01T06:26:01.396Z,20.45
2022-08-01T06:28:27.834Z,20.51
2022-08-01T06:30:54.374Z,20.56
2022-08-01T06:33:20.737Z,20.62
2022-08-01T06:35:47.130Z,20.68
2022-08-01T06:38:13.595Z,20.72
2022-08-01T06:40:40.063Z,20.77
2022-08-01T06:43:06.520Z,20.80
2022-08-01T06:45:32.865Z,20.85
2022-08-01T06:47:59.211Z,20.84
2022-08-01T06:50:25.831Z,20.86
2022-08-01T06:52:52.254Z,20.85
2022-08-01T06:55:18.711Z,20.94
2022-08-01T06:57:52.896Z,20.99
2022-08-01T07:00:23.312Z,20.98
2022-08-01T07:02:54.394Z,21.00
2022-08-01T07:05:21.237Z,20.96
2022-08-01T07:07:47.755Z,20.86
2022-08-01T07:10:14.590Z,20.89
2022-08-01T07:12:41.945Z,20.89
2022-08-01T07:15:10.224Z,20.91
2022-08-01T07:17:41.838Z,20.99
2022-08-01T07:20:10.570Z,21.05
2022-08-01T07:22:38.163Z,21.08
2022-08-01T07:25:06.497Z,21.17
2022-08-01T07:27:33.430Z,21.22
2022-08-01T07:30:00.007Z,21.32
2022-08-01T07:32:26.689Z,21.34
2022-08-01T07:34:53.241Z,21.39
2022-08-01T07:37:44.286Z,21.49
2022-08-01T07:40:06.683Z,21.53
2022-08-01T07:42:33.289Z,21.61
2022-08-01T07:44:59.747Z,21.61
2022-08-01T07:47:27.487Z,21.63
2022-08-01T07:50:00.437Z,21.61
2022-08-01T07:52:27.918Z,21.62
2022-08-01T07:54:54.466Z,21.55
2022-08-01T07:57:20.850Z,21.53
2022-08-01T07:59:47.701Z,21.53
2022-08-01T08:02:14.229Z,21.52
2022-08-01T08:04:42.140Z,21.53
2022-08-01T08:07:10.285Z,21.52
2022-08-01T08:09:37.895Z,21.53
2022-08-01T08:12:05.299Z,21.54
2022-08-01T08:14:32.351Z,21.58
2022-08-01T08:16:59.391Z,21.64
2022-08-01T08:19:37.729Z,21.67
2022-08-01T08:22:04.864Z,21.69
2022-08-01T08:24:31.430Z,21.68
2022-08-01T08:26:59.980Z,21.69
2022-08-01T08:29:27.980Z,21.65
2022-08-01T08:31:55.786Z,21.57
2022-08-01T08:34:23.535Z,21.59
2022-08-01T08:36:50.328Z,21.59
2022-08-01T08:39:19.682Z,21.61
2022-08-01T08:41:49.482Z,21.65
2022-08-01T08:44:17.705Z,21.69
2022-08-01T08:46:46.448Z,21.77
2022-08-01T08:49:17.405Z,21.83
2022-08-01T08:51:48.043Z,21.85
2022-08-01T08:54:16.011Z,21.97
2022-08-01T08:56:43.186Z,22.06
2022-08-01T08:59:09.890Z,22.17
2022-08-01T09:01:36.556Z,22.24
2022-08-01T09:04:06.532Z,22.25
2022-08-01T09:06:33.376Z,22.33
2022-08-01T09:09:00.616Z,22.42
2022-08-01T09:11:27.377Z,22.51
2022-08-01T09:14:12.360Z,22.55
2022-08-01T09:16:48.295Z,22.57
2022-08-01T09:19:38.998Z,22.57
2022-08-01T09:22:06.913Z,22.57
2022-08-01T09:24:36.077Z,22.48
2022-08-01T09:27:16.163Z,22.51
2022-08-01T09:29:42.624Z,22.43
2022-08-01T09:32:16.091Z,22.41
2022-08-01T09:34:43.171Z,22.34
2022-08-01T09:37:10.518Z,22.31
2022-08-01T09:39:40.538Z,22.24
2022-08-01T09:42:29.203Z,22.27
2022-08-01T09:44:56.450Z,22.15
2022-08-01T09:47:23.893Z,22.05
2022-08-01T09:49:59.409Z,22.02
2022-08-01T09:52:28.899Z,21.97
2022-08-01T09:55:02.764Z,21.89
2022-08-01T09:57:30.205Z,21.86
2022-08-01T10:00:01.725Z,21.77
2022-08-01T10:02:37.101Z,21.69
2022-08-01T10:05:09.202Z,21.63
2022-08-01T10:07:59.247Z,21.58
2022-08-01T10:10:28.804Z,21.56
2022-08-01T10:13:00.102Z,21.59
2022-08-01T10:15:37.104Z,21.65
2022-08-01T10:18:16.795Z,21.72
2022-08-01T10:20:56.585Z,21.73
2022-08-01T10:23:39.813Z,21.82
2022-08-01T10:26:08.500Z,21.90
2022-08-01T10:28:39.281Z,21.89
2022-08-01T10:31:13.225Z,21.90
2022-08-01T10:33:51.784Z,21.98
2022-08-01T10:36:23.922Z,22.05
2022-08-01T10:38:52.376Z,21.99
2022-08-01T10:41:20.052Z,22.07
2022-08-01T10:43:46.965Z,22.14
2022-08-01T10:46:13.898Z,22.23
2022-08-01T10:48:57.651Z,22.26
2022-08-01T10:51:51.335Z,22.36
2022-08-01T10:54:13.538Z,22.42
2022-08-01T10:56:51.663Z,22.59
2022-08-01T10:59:50.429Z,22.68
2022-08-01T11:02:11.115Z,22.64
2022-08-01T11:04:58.711Z,22.70
2022-08-01T11:07:40.834Z,22.77
2022-08-01T11:10:30.987Z,22.69
2022-08-01T11:12:57.524Z,22.73
2022-08-01T11:15:29.838Z,22.81
2022-08-01T11:18:00.445Z,22.79
2022-08-01T11:20:33.872Z,22.83
2022-08-01T11:23:02.097Z,22.94
2022-08-01T11:26:05.193Z,23.01
2022-08-01T11:28:32.049Z,23.04
2022-08-01T11:31:14.431Z,23.10
2022-08-01T11:33:46.268Z,23.18
2022-08-01T11:36:13.140Z,23.29
2022-08-01T11:38:45.885Z,23.40
2022-08-01T11:41:18.120Z,23.55
2022-08-01T11:44:24.832Z,23.64
2022-08-01T11:47:08.656Z,23.72
2022-08-01T11:49:39.397Z,23.82
2022-08-01T11:52:36.565Z,23.93
2022-08-01T11:55:02.905Z,24.04
2022-08-01T11:57:34.093Z,24.21
2022-08-01T12:00:08.276Z,24.23
2022-08-01T12:02:35.540Z,24.18
2022-08-01T12:05:08.178Z,24.21
2022-08-01T12:07:36.659Z,24.17
2022-08-01T12:10:05.246Z,24.18
2022-08-01T12:12:32.623Z,24.19
2022-08-01T12:15:10.152Z,24.20
2022-08-01T12:17:58.609Z,24.11
2022-08-01T12:20:30.199Z,24.12
2022-08-01T12:23:03.049Z,24.15
2022-08-01T12:25:29.722Z,24.08
2022-08-01T12:28:00.110Z,24.07
2022-08-01T12:30:27.781Z,24.01
2022-08-01T12:32:54.620Z,24.07
2022-08-01T12:35:26.451Z,24.15
2022-08-01T12:38:01.240Z,24.11
2022-08-01T12:40:30.974Z,24.21
2022-08-01T12:43:05.731Z,24.19
2022-08-01T12:45:56.690Z,24.15
2022-08-01T12:48:24.143Z,24.17
2022-08-01T12:50:53.148Z,24.25
2022-08-01T12:53:21.792Z,24.29
2022-08-01T12:55:58.260Z,24.31
2022-08-01T12:58:32.384Z,24.30
2022-08-01T13:01:07.790Z,24.28
2022-08-01T13:03:34.683Z,24.21
2022-08-01T13:06:01.696Z,24.20
2022-08-01T13:08:33.211Z,24.11
2022-08-01T13:11:06.067Z,23.92
2022-08-01T13:13:41.045Z,23.81
2022-08-01T13:16:12.310Z,23.78
2022-08-01T13:18:52.685Z,23.76
2022-08-01T13:21:52.108Z,23.74
2022-08-01T13:24:30.490Z,23.71
2022-08-01T13:27:04.014Z,23.72
2022-08-01T13:29:45.455Z,23.78
2022-08-01T13:32:28.490Z,23.91
2022-08-01T13:35:10.754Z,24.06
2022-08-01T13:37:39.022Z,24.16
2022-08-01T13:40:09.619Z,24.15
2022-08-01T13:42:36.311Z,24.31
2022-08-01T13:45:04.511Z,24.39
2022-08-01T13:47:40.593Z,24.51
2022-08-01T13:50:26.980Z,24.55
2022-08-01T13:52:53.548Z,24.62
2022-08-01T13:55:20.767Z,24.72
2022-08-01T13:57:47.145Z,24.71
2022-08-01T14:00:14.723Z,24.81
2022-08-01T14:02:41.233Z,24.84
2022-08-01T14:05:07.871Z,24.98
2022-08-01T14:07:34.664Z,24.98
2022-08-01T14:10:18.102Z,25.02
2022-08-01T14:12:46.540Z,25.19
2022-08-01T14:15:14.192Z,25.35
2022-08-01T14:17:47.950Z,25.67
2022-08-01T14:20:14.631Z,25.80
2022-08-01T14:22:41.486Z,25.93
2022-08-01T14:25:08.918Z,25.80
2022-08-01T14:27:37.406Z,25.93
2022-08-01T14:30:05.248Z,25.82
2022-08-01T14:32:31.726Z,25.89
2022-08-01T14:34:58.097Z,25.77
2022-08-01T14:37:29.176Z,25.82
2022-08-01T14:39:58.827Z,26.02
2022-08-01T14:42:26.094Z,26.18
2022-08-01T14:44:52.482Z,26.16
2022-08-01T14:47:21.483Z,26.33
2022-08-01T14:49:49.292Z,26.52
2022-08-01T14:52:15.753Z,26.68
2022-08-01T14:54:42.312Z,26.78
2022-08-01T14:57:09.473Z,26.96
2022-08-01T14:59:36.058Z,27.17
2022-08-01T15:02:02.485Z,27.06
2022-08-01T15:04:29.009Z,27.21
2022-08-01T15:06:55.645Z,27.17
2022-08-01T15:09:22.213Z,27.12
2022-08-01T15:11:48.563Z,27.15
2022-08-01T15:14:33.384Z,27.25
2022-08-01T15:16:59.767Z,27.22
2022-08-01T15:19:26.171Z,27.09
2022-08-01T15:21:52.547Z,26.88
2022-08-01T15:24:19.029Z,26.90
2022-08-01T15:26:45.430Z,27.01
2022-08-01T15:29:13.212Z,27.25
2022-08-01T15:31:39.606Z,27.26
2022-08-01T15:34:06.010Z,27.44
2022-08-01T15:36:32.420Z,27.45
2022-08-01T15:38:58.878Z,27.65
2022-08-01T15:41:25.467Z,27.68
2022-08-01T15:43:55.903Z,27.68
2022-08-01T15:46:22.901Z,27.91
2022-08-01T15:48:49.332Z,27.81
2022-08-01T15:51:15.969Z,27.88
2022-08-01T15:53:43.398Z,27.87
2022-08-01T15:56:09.839Z,28.02
2022-08-01T15:58:36.522Z,28.06
2022-08-01T16:01:03.096Z,28.08
2022-08-01T16:03:29.594Z,28.04
2022-08-01T16:05:56.236Z,28.11
2022-08-01T16:08:22.765Z,28.14
2022-08-01T16:10:49.167Z,27.95
2022-08-01T16:13:16.559Z,27.99
2022-08-01T16:15:43.098Z,28.02
2022-08-01T16:18:13.167Z,28.06
2022-08-01T16:20:45.047Z,27.99
2022-08-01T16:23:12.528Z,27.85
2022-08-01T16:25:39.325Z,27.72
2022-08-01T16:28:05.972Z,27.61
2022-08-01T16:30:32.482Z,27.59
2022-08-01T16:33:00.054Z,27.48
2022-08-01T16:35:36.145Z,27.48
2022-08-01T16:38:06.786Z,27.50
2022-08-01T16:40:34.983Z,27.42
2022-08-01T16:43:16.958Z,27.36
2022-08-01T16:45:44.070Z,27.09
2022-08-01T16:48:12.278Z,27.06
2022-08-01T16:50:39.422Z,27.03
2022-08-01T16:53:05.911Z,26.90
2022-08-01T16:55:49.497Z,26.83
2022-08-01T16:58:19.334Z,26.76
2022-08-01T17:00:56.677Z,26.65
2022-08-01T17:03:52.676Z,26.64
2022-08-01T17:06:11.135Z,26.54
2022-08-01T17:08:37.568Z,26.44
2022-08-01T17:11:13.822Z,26.31
2022-08-01T17:13:40.384Z,26.21
2022-08-01T17:16:08.165Z,26.11
2022-08-01T17:18:34.677Z,25.95
2022-08-01T17:21:01.347Z,25.75
2022-08-01T17:23:27.763Z,25.58
2022-08-01T17:25:54.135Z,25.37
2022-08-01T17:28:22.979Z,25.22
2022-08-01T17:30:49.473Z,25.09
2022-08-01T17:33:15.866Z,25.01
2022-08-01T17:35:42.274Z,24.94
2022-08-01T17:38:08.688Z,24.70
2022-08-01T17:40:40.624Z,24.62
2022-08-01T17:43:07.790Z,24.54
2022-08-01T17:45:38.134Z,24.43
2022-08-01T17:48:18.028Z,24.28
2022-08-01T17:50:46.305Z,24.17
2022-08-01T17:53:13.999Z,24.01
2022-08-01T17:55:56.004Z,23.96
2022-08-01T17:58:49.870Z,23.85
2022-08-01T18:01:11.415Z,23.77
2022-08-01T18:03:40.836Z,23.68
2022-08-01T18:06:07.789Z,23.65
2022-08-01T18:08:34.512Z,23.60
2022-08-01T18:11:01.010Z,23.52
2022-08-01T18:13:27.576Z,23.45
2022-08-01T18:15:55.856Z,23.37
2022-08-01T18:18:33.455Z,23.26
2022-08-01T18:21:01.633Z,23.23
2022-08-01T18:23:28.232Z,23.15
2022-08-01T18:25:54.685Z,23.10
2022-08-01T18:28:31.409Z,23.05
2022-08-01T18:31:00.780Z,22.94
2022-08-01T18:33:27.292Z,22.90
2022-08-01T18:35:54.309Z,22.84
2022-08-01T18:38:20.783Z,22.76
2022-08-01T18:40:50.632Z,22.73
2022-08-01T18:43:17.069Z,22.56
2022-08-01T18:45:43.694Z,22.46
2022-08-01T18:48:11.498Z,22.47
2022-08-01T18:50:39.377Z,22.38
2022-08-01T18:53:06.223Z,22.31
2022-08-01T18:55:32.598Z,22.21
2022-08-01T18:57:59.035Z,22.14
2022-08-01T19:00:25.466Z,21.99
2022-08-01T19:02:51.896Z,21.83
2022-08-01T19:05:18.383Z,21.77
2022-08-01T19:08:05.224Z,21.65
2022-08-01T19:10:31.246Z,21.51
2022-08-01T19:12:57.611Z,21.43
2022-08-01T19:15:25.566Z,21.32
2022-08-01T19:17:52.863Z,21.24
2022-08-01T19:20:19.642Z,21.12
2022-08-01T19:22:46.022Z,21.08
2022-08-01T19:25:14.985Z,21.01
2022-08-01T19:27:46.421Z,20.88
2022-08-01T19:30:13.428Z,20.86
2022-08-01T19:32:42.495Z,20.79
2022-08-01T19:35:12.042Z,20.71
2022-08-01T19:37:52.527Z,20.60
2022-08-01T19:40:27.614Z,20.48
2022-08-01T19:42:56.168Z,20.45
2022-08-01T19:45:22.998Z,20.38
2022-08-01T19:47:57.213Z,20.30
2022-08-01T19:50:28.542Z,20.21
2022-08-01T19:53:02.383Z,20.08
2022-08-01T19:55:30.746Z,19.94
2022-08-01T19:58:24.411Z,19.85
2022-08-01T20:00:47.424Z,19.80
2022-08-01T20:03:15.084Z,19.64
2022-08-01T20:05:41.557Z,19.53
2022-08-01T20:08:09.042Z,19.41
2022-08-01T20:10:38.075Z,19.27
2022-08-01T20:13:05.393Z,19.15
2022-08-01T20:15:31.888Z,19.06
2022-08-01T20:17:58.987Z,18.91
2022-08-01T20:20:25.757Z,18.89
2022-08-01T20:22:57.226Z,18.77
2022-08-01T20:25:32.092Z,18.68
2022-08-01T20:28:09.656Z,18.54
2022-08-01T20:30:38.481Z,18.42
2022-08-01T20:33:06.889Z,18.29
2022-08-01T20:35:50.818Z,18.20
2022-08-01T20:38:23.151Z,18.18
2022-08-01T20:40:52.204Z,18.07
2022-08-01T20:43:20.927Z,18.02
2022-08-01T20:45:50.273Z,17.95
2022-08-01T20:48:17.634Z,17.88
2022-08-01T20:51:07.652Z,17.83
2022-08-01T20:53:40.745Z,17.71
2022-08-01T20:56:33.624Z,17.61
2022-08-01T20:59:39.618Z,17.56
2022-08-01T21:02:35.582Z,17.50
2022-08-01T21:05:12.469Z,17.47
2022-08-01T21:07:47.460Z,17.43
2022-08-01T21:10:16.937Z,17.36
2022-08-01T21:12:44.866Z,17.29
2022-08-01T21:15:38.537Z,17.26
2022-08-01T21:18:38.807Z,17.24
2022-08-01T21:21:10.352Z,17.19
2022-08-01T21:23:47.448Z,17.19
2022-08-01T21:26:14.587Z,17.10
2022-08-01T21:28:41.556Z,17.05
2022-08-01T21:31:22.117Z,17.02
2022-08-01T21:34:03.057Z,16.95
2022-08-01T21:36:30.539Z,16.92
2022-08-01T21:38:57.806Z,16.94
2022-08-01T21:41:56.615Z,16.89
2022-08-01T21:44:16.693Z,16.79
2022-08-01T21:46:43.249Z,16.72
2022-08-01T21:49:10.316Z,16.75
2022-08-01T21:51:42.546Z,16.71
2022-08-01T21:54:27.636Z,16.64
2022-08-01T21:56:53.986Z,16.57
2022-08-01T21:59:46.887Z,16.50
2022-08-01T22:02:42.283Z,16.40
2022-08-01T22:05:12.073Z,16.33
2022-08-01T22:07:46.116Z,16.27
2022-08-01T22:10:18.643Z,16.19
2022-08-01T22:12:46.633Z,16.17
2022-08-01T22:15:14.414Z,16.15
2022-08-01T22:17:41.959Z,16.11
2022-08-01T22:20:09.173Z,16.06
2022-08-01T22:22:51.203Z,16.05
2022-08-01T22:25:21.293Z,16.03
2022-08-01T22:28:08.237Z,15.97
2022-08-01T22:30:41.673Z,15.91
2022-08-01T22:33:15.574Z,15.93
2022-08-01T22:35:48.358Z,15.89
2022-08-01T22:38:17.890Z,15.87
2022-08-01T22:40:52.926Z,15.85
2022-08-01T22:43:33.198Z,15.82
2022-08-01T22:46:26.664Z,15.81
2022-08-01T22:49:01.965Z,15.73
2022-08-01T22:51:38.233Z,15.67
2022-08-01T22:54:12.760Z,15.63
2022-08-01T22:56:44.422Z,15.53
2022-08-01T22:59:23.583Z,15.50
2022-08-01T23:01:51.631Z,15.49
2022-08-01T23:04:38.356Z,15.45
2022-08-01T23:07:06.708Z,15.46
2022-08-01T23:09:39.373Z,15.48
2022-08-01T23:12:23.419Z,15.53
2022-08-01T23:14:53.087Z,15.50
2022-08-01T23:17:26.400Z,15.54
2022-08-01T23:19:57.719Z,15.51
2022-08-01T23:22:28.988Z,15.46
2022-08-01T23:25:04.638Z,15.41
2022-08-01T23:28:03.875Z,15.41
2022-08-01T23:30:24.458Z,15.40
2022-08-01T23:32:50.885Z,15.45
2022-08-01T23:35:17.314Z,15.51
2022-08-01T23:37:43.698Z,15.59
2022-08-01T23:40:10.926Z,15.65
2022-08-01T23:42:37.832Z,15.67
2022-08-01T23:45:04.639Z,15.74
2022-08-01T23:47:31.044Z,15.73
2022-08-01T23:49:57.391Z,15.76
2022-08-01T23:52:23.775Z,15.75
2022-08-01T23:54:55.359Z,15.70
2022-08-01T23:57:23.520Z,15.67
2022-08-01T23:59:52.903Z,15.65
